sensor_id;sensor_type;location;lat;lon;timestamp;temperature;humidity
83808;SHT31;73824;40.292;17.998;2024-02-21T00:01:35;8.70;88.40
83808;SHT31;73824;40.292;17.998;2024-02-21T00:04:01;8.67;88.46
83808;SHT31;73824;40.292;17.998;2024-02-21T00:06:27;8.70;88.42
83808;SHT31;73824;40.292;17.998;2024-02-21T00:08:53;8.69;88.24
83808;SHT31;73824;40.292;17.998;2024-02-21T00:11:19;8.70;88.22
83808;SHT31;73824;40.292;17.998;2024-02-21T00:13:45;8.74;88.10
83808;SHT31;73824;40.292;17.998;2024-02-21T00:16:10;8.76;87.94
83808;SHT31;73824;40.292;17.998;2024-02-21T00:18:36;8.66;87.92
83808;SHT31;73824;40.292;17.998;2024-02-21T00:21:02;8.59;87.81
83808;SHT31;73824;40.292;17.998;2024-02-21T00:23:28;8.54;87.86
83808;SHT31;73824;40.292;17.998;2024-02-21T00:25:54;8.50;87.86
83808;SHT31;73824;40.292;17.998;2024-02-21T00:28:19;8.48;87.89
83808;SHT31;73824;40.292;17.998;2024-02-21T00:30:45;8.46;87.86
83808;SHT31;73824;40.292;17.998;2024-02-21T00:33:13;8.42;87.96
83808;SHT31;73824;40.292;17.998;2024-02-21T00:35:39;8.46;88.05
83808;SHT31;73824;40.292;17.998;2024-02-21T00:38:04;8.49;87.91
83808;SHT31;73824;40.292;17.998;2024-02-21T00:40:30;8.50;87.96
83808;SHT31;73824;40.292;17.998;2024-02-21T00:42:56;8.49;87.90
83808;SHT31;73824;40.292;17.998;2024-02-21T00:45:21;8.45;87.97
83808;SHT31;73824;40.292;17.998;2024-02-21T00:47:47;8.39;88.15
83808;SHT31;73824;40.292;17.998;2024-02-21T00:50:12;8.52;88.28
83808;SHT31;73824;40.292;17.998;2024-02-21T00:52:38;8.49;88.26
83808;SHT31;73824;40.292;17.998;2024-02-21T00:55:04;8.49;88.42
83808;SHT31;73824;40.292;17.998;2024-02-21T00:57:30;8.50;88.46
83808;SHT31;73824;40.292;17.998;2024-02-21T00:59:55;8.46;88.58
83808;SHT31;73824;40.292;17.998;2024-02-21T01:02:21;8.46;88.60
83808;SHT31;73824;40.292;17.998;2024-02-21T01:04:46;8.39;88.66
83808;SHT31;73824;40.292;17.998;2024-02-21T01:07:12;8.40;88.72
83808;SHT31;73824;40.292;17.998;2024-02-21T01:09:37;8.40;88.74
83808;SHT31;73824;40.292;17.998;2024-02-21T01:12:03;8.39;88.77
83808;SHT31;73824;40.292;17.998;2024-02-21T01:14:28;8.45;88.77
83808;SHT31;73824;40.292;17.998;2024-02-21T01:16:54;8.40;88.77
83808;SHT31;73824;40.292;17.998;2024-02-21T01:19:19;8.43;88.77
83808;SHT31;73824;40.292;17.998;2024-02-21T01:21:45;8.40;88.89
83808;SHT31;73824;40.292;17.998;2024-02-21T01:24:10;8.49;89.02
83808;SHT31;73824;40.292;17.998;2024-02-21T01:26:36;8.46;89.05
83808;SHT31;73824;40.292;17.998;2024-02-21T01:29:01;8.45;89.05
83808;SHT31;73824;40.292;17.998;2024-02-21T01:31:27;8.45;88.90
83808;SHT31;73824;40.292;17.998;2024-02-21T01:33:52;8.31;88.91
83808;SHT31;73824;40.292;17.998;2024-02-21T01:36:18;8.33;89.01
83808;SHT31;73824;40.292;17.998;2024-02-21T01:38:43;8.29;89.08
83808;SHT31;73824;40.292;17.998;2024-02-21T01:41:09;8.26;89.18
83808;SHT31;73824;40.292;17.998;2024-02-21T01:43:34;8.31;89.26
83808;SHT31;73824;40.292;17.998;2024-02-21T01:46:00;8.32;89.45
83808;SHT31;73824;40.292;17.998;2024-02-21T01:48:26;8.39;89.41
83808;SHT31;73824;40.292;17.998;2024-02-21T01:50:54;8.42;89.51
83808;SHT31;73824;40.292;17.998;2024-02-21T01:53:25;8.42;89.48
83808;SHT31;73824;40.292;17.998;2024-02-21T01:55:52;8.33;89.58
83808;SHT31;73824;40.292;17.998;2024-02-21T01:58:18;8.36;89.65
83808;SHT31;73824;40.292;17.998;2024-02-21T02:00:46;8.33;89.77
83808;SHT31;73824;40.292;17.998;2024-02-21T02:03:13;8.39;89.75
83808;SHT31;73824;40.292;17.998;2024-02-21T02:05:46;8.42;89.71
83808;SHT31;73824;40.292;17.998;2024-02-21T02:08:21;8.42;89.57
83808;SHT31;73824;40.292;17.998;2024-02-21T02:10:49;8.35;89.52
83808;SHT31;73824;40.292;17.998;2024-02-21T02:13:15;8.31;89.61
83808;SHT31;73824;40.292;17.998;2024-02-21T02:15:42;8.28;89.68
83808;SHT31;73824;40.292;17.998;2024-02-21T02:18:08;8.28;89.70
83808;SHT31;73824;40.292;17.998;2024-02-21T02:20:34;8.29;89.67
83808;SHT31;73824;40.292;17.998;2024-02-21T02:25:46;8.19;89.48
83808;SHT31;73824;40.292;17.998;2024-02-21T02:28:14;8.11;89.43
83808;SHT31;73824;40.292;17.998;2024-02-21T02:30:40;8.09;89.35
83808;SHT31;73824;40.292;17.998;2024-02-21T02:33:06;7.98;89.31
83808;SHT31;73824;40.292;17.998;2024-02-21T02:35:32;7.94;89.31
83808;SHT31;73824;40.292;17.998;2024-02-21T02:37:58;7.91;89.38
83808;SHT31;73824;40.292;17.998;2024-02-21T02:40:24;7.85;89.39
83808;SHT31;73824;40.292;17.998;2024-02-21T02:42:50;7.81;89.47
83808;SHT31;73824;40.292;17.998;2024-02-21T02:45:17;7.78;89.56
83808;SHT31;73824;40.292;17.998;2024-02-21T02:47:44;7.77;89.56
83808;SHT31;73824;40.292;17.998;2024-02-21T02:50:11;7.80;89.43
83808;SHT31;73824;40.292;17.998;2024-02-21T02:52:37;7.74;89.34
83808;SHT31;73824;40.292;17.998;2024-02-21T02:55:03;7.75;89.34
83808;SHT31;73824;40.292;17.998;2024-02-21T02:57:29;7.73;89.43
83808;SHT31;73824;40.292;17.998;2024-02-21T02:59:54;7.77;89.42
83808;SHT31;73824;40.292;17.998;2024-02-21T03:02:20;7.80;89.38
83808;SHT31;73824;40.292;17.998;2024-02-21T03:04:45;7.83;89.40
83808;SHT31;73824;40.292;17.998;2024-02-21T03:07:11;7.80;89.22
83808;SHT31;73824;40.292;17.998;2024-02-21T03:09:40;7.75;89.22
83808;SHT31;73824;40.292;17.998;2024-02-21T03:12:08;7.73;89.28
83808;SHT31;73824;40.292;17.998;2024-02-21T03:14:34;7.74;89.32
83808;SHT31;73824;40.292;17.998;2024-02-21T03:17:00;7.71;89.38
83808;SHT31;73824;40.292;17.998;2024-02-21T03:19:27;7.69;89.29
83808;SHT31;73824;40.292;17.998;2024-02-21T03:21:53;7.63;89.24
83808;SHT31;73824;40.292;17.998;2024-02-21T03:24:19;7.62;89.23
83808;SHT31;73824;40.292;17.998;2024-02-21T03:26:45;7.56;89.23
83808;SHT31;73824;40.292;17.998;2024-02-21T03:29:19;7.50;89.34
83808;SHT31;73824;40.292;17.998;2024-02-21T03:31:45;7.49;89.47
83808;SHT31;73824;40.292;17.998;2024-02-21T03:34:10;7.47;89.54
83808;SHT31;73824;40.292;17.998;2024-02-21T03:36:36;7.54;89.70
83808;SHT31;73824;40.292;17.998;2024-02-21T03:39:02;7.59;89.78
83808;SHT31;73824;40.292;17.998;2024-02-21T03:41:29;7.73;89.44
83808;SHT31;73824;40.292;17.998;2024-02-21T03:43:54;7.80;88.97
83808;SHT31;73824;40.292;17.998;2024-02-21T03:46:20;7.73;88.78
83808;SHT31;73824;40.292;17.998;2024-02-21T03:48:45;7.71;88.97
83808;SHT31;73824;40.292;17.998;2024-02-21T03:51:11;7.70;89.03
83808;SHT31;73824;40.292;17.998;2024-02-21T03:53:36;7.74;88.74
83808;SHT31;73824;40.292;17.998;2024-02-21T03:56:02;7.69;88.58
83808;SHT31;73824;40.292;17.998;2024-02-21T03:58:30;7.59;88.56
83808;SHT31;73824;40.292;17.998;2024-02-21T04:00:55;7.53;88.86
83808;SHT31;73824;40.292;17.998;2024-02-21T04:03:21;7.53;88.90
83808;SHT31;73824;40.292;17.998;2024-02-21T04:05:46;7.50;88.97
83808;SHT31;73824;40.292;17.998;2024-02-21T04:08:16;7.53;88.94
83808;SHT31;73824;40.292;17.998;2024-02-21T04:10:41;7.49;89.16
83808;SHT31;73824;40.292;17.998;2024-02-21T04:13:07;7.54;89.16
83808;SHT31;73824;40.292;17.998;2024-02-21T04:15:33;7.53;89.18
83808;SHT31;73824;40.292;17.998;2024-02-21T04:17:58;7.50;89.17
83808;SHT31;73824;40.292;17.998;2024-02-21T04:20:24;7.46;89.14
83808;SHT31;73824;40.292;17.998;2024-02-21T04:22:49;7.42;89.12
83808;SHT31;73824;40.292;17.998;2024-02-21T04:25:15;7.39;89.18
83808;SHT31;73824;40.292;17.998;2024-02-21T04:27:41;7.33;89.30
83808;SHT31;73824;40.292;17.998;2024-02-21T04:30:07;7.40;89.30
83808;SHT31;73824;40.292;17.998;2024-02-21T04:32:33;7.44;89.14
83808;SHT31;73824;40.292;17.998;2024-02-21T04:34:59;7.42;89.14
83808;SHT31;73824;40.292;17.998;2024-02-21T04:37:24;7.39;89.27
83808;SHT31;73824;40.292;17.998;2024-02-21T04:39:50;7.44;89.19
83808;SHT31;73824;40.292;17.998;2024-02-21T04:42:16;7.42;89.23
83808;SHT31;73824;40.292;17.998;2024-02-21T04:44:41;7.42;89.26
83808;SHT31;73824;40.292;17.998;2024-02-21T04:47:07;7.39;89.41
83808;SHT31;73824;40.292;17.998;2024-02-21T04:49:33;7.36;89.55
83808;SHT31;73824;40.292;17.998;2024-02-21T04:51:59;7.36;89.63
83808;SHT31;73824;40.292;17.998;2024-02-21T04:54:24;7.37;89.62
83808;SHT31;73824;40.292;17.998;2024-02-21T04:56:50;7.37;89.66
83808;SHT31;73824;40.292;17.998;2024-02-21T04:59:16;7.35;89.64
83808;SHT31;73824;40.292;17.998;2024-02-21T05:01:42;7.37;89.60
83808;SHT31;73824;40.292;17.998;2024-02-21T05:04:07;7.33;89.46
83808;SHT31;73824;40.292;17.998;2024-02-21T05:06:41;7.27;89.46
83808;SHT31;73824;40.292;17.998;2024-02-21T05:09:07;7.18;89.58
83808;SHT31;73824;40.292;17.998;2024-02-21T05:11:36;7.15;89.67
83808;SHT31;73824;40.292;17.998;2024-02-21T05:14:03;7.09;89.69
83808;SHT31;73824;40.292;17.998;2024-02-21T05:16:30;7.09;89.66
83808;SHT31;73824;40.292;17.998;2024-02-21T05:18:55;7.09;89.54
83808;SHT31;73824;40.292;17.998;2024-02-21T05:21:23;7.02;89.52
83808;SHT31;73824;40.292;17.998;2024-02-21T05:23:49;6.98;89.50
83808;SHT31;73824;40.292;17.998;2024-02-21T05:26:24;7.01;89.39
83808;SHT31;73824;40.292;17.998;2024-02-21T05:28:50;6.98;89.34
83808;SHT31;73824;40.292;17.998;2024-02-21T05:31:17;6.91;89.41
83808;SHT31;73824;40.292;17.998;2024-02-21T05:33:44;6.88;89.41
83808;SHT31;73824;40.292;17.998;2024-02-21T05:36:09;6.87;89.45
83808;SHT31;73824;40.292;17.998;2024-02-21T05:38:35;6.81;89.43
83808;SHT31;73824;40.292;17.998;2024-02-21T05:41:01;6.67;89.81
83808;SHT31;73824;40.292;17.998;2024-02-21T05:43:26;6.70;90.05
83808;SHT31;73824;40.292;17.998;2024-02-21T05:45:52;6.70;90.12
83808;SHT31;73824;40.292;17.998;2024-02-21T05:48:18;6.75;90.01
83808;SHT31;73824;40.292;17.998;2024-02-21T05:50:43;6.75;89.89
83808;SHT31;73824;40.292;17.998;2024-02-21T05:53:09;6.80;89.87
83808;SHT31;73824;40.292;17.998;2024-02-21T05:55:35;6.87;89.79
83808;SHT31;73824;40.292;17.998;2024-02-21T05:58:01;7.02;89.71
83808;SHT31;73824;40.292;17.998;2024-02-21T06:00:28;7.19;89.09
83808;SHT31;73824;40.292;17.998;2024-02-21T06:02:53;7.22;88.98
83808;SHT31;73824;40.292;17.998;2024-02-21T06:05:19;7.35;88.96
83808;SHT31;73824;40.292;17.998;2024-02-21T06:07:44;7.47;88.89
83808;SHT31;73824;40.292;17.998;2024-02-21T06:10:10;7.66;88.51
83808;SHT31;73824;40.292;17.998;2024-02-21T06:12:35;7.71;88.07
83808;SHT31;73824;40.292;17.998;2024-02-21T06:15:01;7.85;87.73
83808;SHT31;73824;40.292;17.998;2024-02-21T06:17:26;8.02;87.65
83808;SHT31;73824;40.292;17.998;2024-02-21T06:19:52;8.18;87.30
83808;SHT31;73824;40.292;17.998;2024-02-21T06:22:17;8.35;87.04
83808;SHT31;73824;40.292;17.998;2024-02-21T06:24:43;8.59;86.79
83808;SHT31;73824;40.292;17.998;2024-02-21T06:27:09;8.80;86.68
83808;SHT31;73824;40.292;17.998;2024-02-21T06:29:35;9.04;86.48
83808;SHT31;73824;40.292;17.998;2024-02-21T06:32:01;9.25;86.10
83808;SHT31;73824;40.292;17.998;2024-02-21T06:34:27;9.53;86.03
83808;SHT31;73824;40.292;17.998;2024-02-21T06:36:52;9.73;84.92
83808;SHT31;73824;40.292;17.998;2024-02-21T06:39:18;9.97;84.84
83808;SHT31;73824;40.292;17.998;2024-02-21T06:41:43;10.48;84.60
83808;SHT31;73824;40.292;17.998;2024-02-21T06:44:09;12.53;82.34
83808;SHT31;73824;40.292;17.998;2024-02-21T06:46:35;15.24;72.63
83808;SHT31;73824;40.292;17.998;2024-02-21T06:49:01;17.55;61.08
83808;SHT31;73824;40.292;17.998;2024-02-21T06:51:27;19.11;54.59
83808;SHT31;73824;40.292;17.998;2024-02-21T06:53:53;20.96;50.75
83808;SHT31;73824;40.292;17.998;2024-02-21T06:56:19;22.58;45.77
83808;SHT31;73824;40.292;17.998;2024-02-21T06:58:45;23.26;41.98
83808;SHT31;73824;40.292;17.998;2024-02-21T07:01:10;23.24;40.75
83808;SHT31;73824;40.292;17.998;2024-02-21T07:03:36;23.30;41.95
83808;SHT31;73824;40.292;17.998;2024-02-21T07:06:02;24.32;39.76
83808;SHT31;73824;40.292;17.998;2024-02-21T07:08:27;25.16;37.21
83808;SHT31;73824;40.292;17.998;2024-02-21T07:10:53;24.86;37.30
83808;SHT31;73824;40.292;17.998;2024-02-21T07:13:19;25.94;36.68
83808;SHT31;73824;40.292;17.998;2024-02-21T07:15:44;26.05;37.70
83808;SHT31;73824;40.292;17.998;2024-02-21T07:18:10;26.72;36.19
83808;SHT31;73824;40.292;17.998;2024-02-21T07:20:35;25.47;37.84
83808;SHT31;73824;40.292;17.998;2024-02-21T07:23:07;27.04;35.50
83808;SHT31;73824;40.292;17.998;2024-02-21T07:25:32;27.71;34.42
83808;SHT31;73824;40.292;17.998;2024-02-21T07:27:57;27.93;34.24
83808;SHT31;73824;40.292;17.998;2024-02-21T07:30:23;27.82;32.88
83808;SHT31;73824;40.292;17.998;2024-02-21T07:32:49;28.56;34.05
83808;SHT31;73824;40.292;17.998;2024-02-21T07:35:17;28.88;32.04
83808;SHT31;73824;40.292;17.998;2024-02-21T07:37:42;28.41;33.06
83808;SHT31;73824;40.292;17.998;2024-02-21T07:40:17;27.96;35.21
83808;SHT31;73824;40.292;17.998;2024-02-21T07:42:44;27.22;35.64
83808;SHT31;73824;40.292;17.998;2024-02-21T07:45:10;26.44;37.55
83808;SHT31;73824;40.292;17.998;2024-02-21T07:47:36;28.85;33.59
83808;SHT31;73824;40.292;17.998;2024-02-21T07:50:05;29.16;32.33
83808;SHT31;73824;40.292;17.998;2024-02-21T07:52:31;29.52;31.66
83808;SHT31;73824;40.292;17.998;2024-02-21T07:54:56;29.47;32.96
83808;SHT31;73824;40.292;17.998;2024-02-21T07:57:22;30.08;31.57
83808;SHT31;73824;40.292;17.998;2024-02-21T07:59:48;30.18;30.03
83808;SHT31;73824;40.292;17.998;2024-02-21T08:02:14;28.29;33.24
83808;SHT31;73824;40.292;17.998;2024-02-21T08:04:40;27.50;35.30
83808;SHT31;73824;40.292;17.998;2024-02-21T08:07:05;27.47;35.62
83808;SHT31;73824;40.292;17.998;2024-02-21T08:09:31;27.20;36.01
83808;SHT31;73824;40.292;17.998;2024-02-21T08:11:56;27.34;35.21
83808;SHT31;73824;40.292;17.998;2024-02-21T08:14:22;28.35;33.48
83808;SHT31;73824;40.292;17.998;2024-02-21T08:16:52;27.16;35.70
83808;SHT31;73824;40.292;17.998;2024-02-21T08:19:19;28.91;33.23
83808;SHT31;73824;40.292;17.998;2024-02-21T08:21:45;30.04;30.99
83808;SHT31;73824;40.292;17.998;2024-02-21T08:24:13;28.56;33.43
83808;SHT31;73824;40.292;17.998;2024-02-21T08:26:42;27.06;34.47
83808;SHT31;73824;40.292;17.998;2024-02-21T08:29:07;27.22;34.89
83808;SHT31;73824;40.292;17.998;2024-02-21T08:31:33;27.62;33.16
83808;SHT31;73824;40.292;17.998;2024-02-21T08:34:00;26.04;36.65
83808;SHT31;73824;40.292;17.998;2024-02-21T08:36:35;27.24;35.10
83808;SHT31;73824;40.292;17.998;2024-02-21T08:39:02;25.59;36.71
83808;SHT31;73824;40.292;17.998;2024-02-21T08:41:34;25.73;37.18
83808;SHT31;73824;40.292;17.998;2024-02-21T08:44:00;25.98;36.49
83808;SHT31;73824;40.292;17.998;2024-02-21T08:46:26;26.14;35.66
83808;SHT31;73824;40.292;17.998;2024-02-21T08:48:53;26.24;35.96
83808;SHT31;73824;40.292;17.998;2024-02-21T08:51:19;26.99;35.41
83808;SHT31;73824;40.292;17.998;2024-02-21T08:53:48;27.89;33.18
83808;SHT31;73824;40.292;17.998;2024-02-21T08:56:13;26.90;34.33
83808;SHT31;73824;40.292;17.998;2024-02-21T08:58:40;25.84;35.73
83808;SHT31;73824;40.292;17.998;2024-02-21T09:01:07;26.87;34.49
83808;SHT31;73824;40.292;17.998;2024-02-21T09:03:36;26.69;33.96
83808;SHT31;73824;40.292;17.998;2024-02-21T09:06:03;27.16;33.67
83808;SHT31;73824;40.292;17.998;2024-02-21T09:08:29;26.24;35.02
83808;SHT31;73824;40.292;17.998;2024-02-21T09:10:55;27.68;33.19
83808;SHT31;73824;40.292;17.998;2024-02-21T09:13:20;28.16;30.85
83808;SHT31;73824;40.292;17.998;2024-02-21T09:15:47;27.00;31.77
83808;SHT31;73824;40.292;17.998;2024-02-21T09:18:13;25.49;33.42
83808;SHT31;73824;40.292;17.998;2024-02-21T09:20:38;26.27;33.39
83808;SHT31;73824;40.292;17.998;2024-02-21T09:23:04;27.37;31.94
83808;SHT31;73824;40.292;17.998;2024-02-21T09:25:29;27.08;32.32
83808;SHT31;73824;40.292;17.998;2024-02-21T09:27:55;26.68;33.25
83808;SHT31;73824;40.292;17.998;2024-02-21T09:30:22;26.24;33.75
83808;SHT31;73824;40.292;17.998;2024-02-21T09:32:47;26.44;32.37
83808;SHT31;73824;40.292;17.998;2024-02-21T09:35:13;26.18;32.33
83808;SHT31;73824;40.292;17.998;2024-02-21T09:37:39;24.19;34.15
83808;SHT31;73824;40.292;17.998;2024-02-21T09:40:05;24.94;33.96
83808;SHT31;73824;40.292;17.998;2024-02-21T09:42:38;26.20;32.28
83808;SHT31;73824;40.292;17.998;2024-02-21T09:45:24;25.98;32.08
83808;SHT31;73824;40.292;17.998;2024-02-21T09:50:34;24.64;33.67
83808;SHT31;73824;40.292;17.998;2024-02-21T09:53:02;24.46;33.64
83808;SHT31;73824;40.292;17.998;2024-02-21T09:55:29;24.41;32.89
83808;SHT31;73824;40.292;17.998;2024-02-21T09:57:58;24.92;32.72
83808;SHT31;73824;40.292;17.998;2024-02-21T10:00:24;25.01;32.20
83808;SHT31;73824;40.292;17.998;2024-02-21T10:02:50;25.47;32.31
83808;SHT31;73824;40.292;17.998;2024-02-21T10:05:16;24.37;33.23
83808;SHT31;73824;40.292;17.998;2024-02-21T10:07:43;22.89;36.62
83808;SHT31;73824;40.292;17.998;2024-02-21T10:10:09;21.99;38.16
83808;SHT31;73824;40.292;17.998;2024-02-21T10:12:35;20.35;41.21
83808;SHT31;73824;40.292;17.998;2024-02-21T10:15:05;20.14;42.44
83808;SHT31;73824;40.292;17.998;2024-02-21T10:17:35;19.67;43.17
83808;SHT31;73824;40.292;17.998;2024-02-21T10:20:11;19.23;43.56
83808;SHT31;73824;40.292;17.998;2024-02-21T10:22:38;18.48;44.82
83808;SHT31;73824;40.292;17.998;2024-02-21T10:25:12;18.20;45.97
83808;SHT31;73824;40.292;17.998;2024-02-21T10:27:39;18.34;45.82
83808;SHT31;73824;40.292;17.998;2024-02-21T10:30:13;18.30;44.20
83808;SHT31;73824;40.292;17.998;2024-02-21T10:32:52;18.30;44.66
83808;SHT31;73824;40.292;17.998;2024-02-21T10:35:30;18.22;44.91
83808;SHT31;73824;40.292;17.998;2024-02-21T10:37:57;18.08;45.26
83808;SHT31;73824;40.292;17.998;2024-02-21T10:40:27;18.05;45.87
83808;SHT31;73824;40.292;17.998;2024-02-21T10:43:00;17.81;45.13
83808;SHT31;73824;40.292;17.998;2024-02-21T10:45:31;17.74;46.29
83808;SHT31;73824;40.292;17.998;2024-02-21T10:48:12;18.00;46.52
83808;SHT31;73824;40.292;17.998;2024-02-21T10:56:03;18.03;46.67
83808;SHT31;73824;40.292;17.998;2024-02-21T10:58:32;18.08;46.01
83808;SHT31;73824;40.292;17.998;2024-02-21T11:00:58;17.86;46.94
83808;SHT31;73824;40.292;17.998;2024-02-21T11:03:24;17.93;46.32
83808;SHT31;73824;40.292;17.998;2024-02-21T11:05:50;17.79;45.55
83808;SHT31;73824;40.292;17.998;2024-02-21T11:08:17;17.88;46.55
83808;SHT31;73824;40.292;17.998;2024-02-21T11:10:45;17.98;45.09
83808;SHT31;73824;40.292;17.998;2024-02-21T11:13:11;17.77;45.15
83808;SHT31;73824;40.292;17.998;2024-02-21T11:15:37;17.86;45.12
83808;SHT31;73824;40.292;17.998;2024-02-21T11:18:02;18.12;45.35
83808;SHT31;73824;40.292;17.998;2024-02-21T11:20:34;18.16;44.49
83808;SHT31;73824;40.292;17.998;2024-02-21T11:23:00;17.79;45.18
83808;SHT31;73824;40.292;17.998;2024-02-21T11:25:29;17.88;45.59
83808;SHT31;73824;40.292;17.998;2024-02-21T11:28:05;17.68;44.36
83808;SHT31;73824;40.292;17.998;2024-02-21T11:30:35;17.64;43.95
83808;SHT31;73824;40.292;17.998;2024-02-21T11:33:06;17.90;44.52
83808;SHT31;73824;40.292;17.998;2024-02-21T11:35:33;18.26;43.61
83808;SHT31;73824;40.292;17.998;2024-02-21T11:38:12;18.41;42.80
83808;SHT31;73824;40.292;17.998;2024-02-21T11:40:45;19.12;42.00
83808;SHT31;73824;40.292;17.998;2024-02-21T11:43:11;19.43;39.15
83808;SHT31;73824;40.292;17.998;2024-02-21T11:45:37;18.89;40.15
83808;SHT31;73824;40.292;17.998;2024-02-21T11:48:06;19.20;39.06
83808;SHT31;73824;40.292;17.998;2024-02-21T11:50:32;19.63;36.94
83808;SHT31;73824;40.292;17.998;2024-02-21T11:52:58;19.12;37.59
83808;SHT31;73824;40.292;17.998;2024-02-21T11:55:23;19.13;37.81
83808;SHT31;73824;40.292;17.998;2024-02-21T11:57:49;19.33;37.90
83808;SHT31;73824;40.292;17.998;2024-02-21T12:00:19;19.84;37.89
83808;SHT31;73824;40.292;17.998;2024-02-21T12:02:47;19.43;36.83
83808;SHT31;73824;40.292;17.998;2024-02-21T12:05:13;19.47;37.38
83808;SHT31;73824;40.292;17.998;2024-02-21T12:07:40;19.50;37.32
83808;SHT31;73824;40.292;17.998;2024-02-21T12:10:09;19.49;38.03
83808;SHT31;73824;40.292;17.998;2024-02-21T12:12:36;19.09;37.97
83808;SHT31;73824;40.292;17.998;2024-02-21T12:15:04;19.06;36.96
83808;SHT31;73824;40.292;17.998;2024-02-21T12:17:32;18.91;38.07
83808;SHT31;73824;40.292;17.998;2024-02-21T12:19:58;18.85;38.20
83808;SHT31;73824;40.292;17.998;2024-02-21T12:22:25;18.72;38.82
83808;SHT31;73824;40.292;17.998;2024-02-21T12:24:51;19.08;38.45
83808;SHT31;73824;40.292;17.998;2024-02-21T12:27:16;18.89;39.08
83808;SHT31;73824;40.292;17.998;2024-02-21T12:29:42;19.20;38.60
83808;SHT31;73824;40.292;17.998;2024-02-21T12:32:08;19.13;37.89
83808;SHT31;73824;40.292;17.998;2024-02-21T12:34:33;18.50;39.69
83808;SHT31;73824;40.292;17.998;2024-02-21T12:36:59;18.58;40.50
83808;SHT31;73824;40.292;17.998;2024-02-21T12:39:25;18.68;39.65
83808;SHT31;73824;40.292;17.998;2024-02-21T12:41:54;18.72;38.53
83808;SHT31;73824;40.292;17.998;2024-02-21T12:44:21;18.48;39.59
83808;SHT31;73824;40.292;17.998;2024-02-21T12:46:47;18.51;39.37
83808;SHT31;73824;40.292;17.998;2024-02-21T12:49:17;18.46;39.86
83808;SHT31;73824;40.292;17.998;2024-02-21T12:51:43;18.29;39.98
83808;SHT31;73824;40.292;17.998;2024-02-21T12:54:12;18.10;41.18
83808;SHT31;73824;40.292;17.998;2024-02-21T12:56:37;18.25;40.96
83808;SHT31;73824;40.292;17.998;2024-02-21T12:59:03;18.22;41.58
83808;SHT31;73824;40.292;17.998;2024-02-21T13:01:28;18.26;42.53
83808;SHT31;73824;40.292;17.998;2024-02-21T13:03:54;18.17;42.68
83808;SHT31;73824;40.292;17.998;2024-02-21T13:06:21;18.05;42.47
83808;SHT31;73824;40.292;17.998;2024-02-21T13:08:46;18.05;42.57
83808;SHT31;73824;40.292;17.998;2024-02-21T13:11:12;18.00;41.75
83808;SHT31;73824;40.292;17.998;2024-02-21T13:13:38;17.89;40.83
83808;SHT31;73824;40.292;17.998;2024-02-21T13:16:04;17.78;42.14
83808;SHT31;73824;40.292;17.998;2024-02-21T13:18:29;17.86;41.69
83808;SHT31;73824;40.292;17.998;2024-02-21T13:20:55;17.99;41.11
83808;SHT31;73824;40.292;17.998;2024-02-21T13:23:21;17.82;41.44
83808;SHT31;73824;40.292;17.998;2024-02-21T13:25:47;17.81;42.46
83808;SHT31;73824;40.292;17.998;2024-02-21T13:28:12;17.42;41.77
83808;SHT31;73824;40.292;17.998;2024-02-21T13:30:39;17.40;41.56
83808;SHT31;73824;40.292;17.998;2024-02-21T13:33:08;17.50;41.89
83808;SHT31;73824;40.292;17.998;2024-02-21T13:35:35;17.48;41.94
83808;SHT31;73824;40.292;17.998;2024-02-21T13:38:02;17.35;41.82
83808;SHT31;73824;40.292;17.998;2024-02-21T13:40:28;17.51;41.83
83808;SHT31;73824;40.292;17.998;2024-02-21T13:42:53;17.47;42.48
83808;SHT31;73824;40.292;17.998;2024-02-21T13:45:19;17.61;41.59
83808;SHT31;73824;40.292;17.998;2024-02-21T13:47:45;17.67;41.15
83808;SHT31;73824;40.292;17.998;2024-02-21T13:50:10;17.44;42.10
83808;SHT31;73824;40.292;17.998;2024-02-21T13:52:40;17.52;41.15
83808;SHT31;73824;40.292;17.998;2024-02-21T13:55:06;17.31;41.68
83808;SHT31;73824;40.292;17.998;2024-02-21T13:57:35;17.26;42.47
83808;SHT31;73824;40.292;17.998;2024-02-21T14:00:02;17.21;42.29
83808;SHT31;73824;40.292;17.998;2024-02-21T14:02:28;17.19;43.20
83808;SHT31;73824;40.292;17.998;2024-02-21T14:04:54;17.23;43.31
83808;SHT31;73824;40.292;17.998;2024-02-21T14:07:20;17.14;43.57
83808;SHT31;73824;40.292;17.998;2024-02-21T14:09:45;17.24;44.02
83808;SHT31;73824;40.292;17.998;2024-02-21T14:12:11;17.19;43.16
83808;SHT31;73824;40.292;17.998;2024-02-21T14:14:37;17.03;44.37
83808;SHT31;73824;40.292;17.998;2024-02-21T14:17:03;16.75;43.94
83808;SHT31;73824;40.292;17.998;2024-02-21T14:19:29;16.80;44.51
83808;SHT31;73824;40.292;17.998;2024-02-21T14:21:55;16.92;44.01
83808;SHT31;73824;40.292;17.998;2024-02-21T14:24:20;16.96;43.13
83808;SHT31;73824;40.292;17.998;2024-02-21T14:26:46;16.79;43.83
83808;SHT31;73824;40.292;17.998;2024-02-21T14:29:11;16.79;44.27
83808;SHT31;73824;40.292;17.998;2024-02-21T14:31:38;16.69;43.55
83808;SHT31;73824;40.292;17.998;2024-02-21T14:34:03;16.77;43.33
83808;SHT31;73824;40.292;17.998;2024-02-21T14:36:29;16.75;43.83
83808;SHT31;73824;40.292;17.998;2024-02-21T14:38:54;16.61;44.63
83808;SHT31;73824;40.292;17.998;2024-02-21T14:41:20;16.56;44.76
83808;SHT31;73824;40.292;17.998;2024-02-21T14:43:45;16.72;44.94
83808;SHT31;73824;40.292;17.998;2024-02-21T14:46:11;16.56;44.52
83808;SHT31;73824;40.292;17.998;2024-02-21T14:48:38;16.61;43.28
83808;SHT31;73824;40.292;17.998;2024-02-21T14:51:03;16.49;43.90
83808;SHT31;73824;40.292;17.998;2024-02-21T14:53:29;16.32;44.68
83808;SHT31;73824;40.292;17.998;2024-02-21T14:55:56;16.35;44.09
83808;SHT31;73824;40.292;17.998;2024-02-21T14:58:23;16.72;43.74
83808;SHT31;73824;40.292;17.998;2024-02-21T15:00:49;16.55;42.02
83808;SHT31;73824;40.292;17.998;2024-02-21T15:03:16;16.47;41.23
83808;SHT31;73824;40.292;17.998;2024-02-21T15:05:45;16.47;41.16
83808;SHT31;73824;40.292;17.998;2024-02-21T15:08:10;16.61;41.40
83808;SHT31;73824;40.292;17.998;2024-02-21T15:10:37;16.40;40.06
83808;SHT31;73824;40.292;17.998;2024-02-21T15:13:03;16.14;41.64
83808;SHT31;73824;40.292;17.998;2024-02-21T15:15:29;16.14;42.58
83808;SHT31;73824;40.292;17.998;2024-02-21T15:17:54;16.17;42.41
83808;SHT31;73824;40.292;17.998;2024-02-21T15:20:20;16.18;42.63
83808;SHT31;73824;40.292;17.998;2024-02-21T15:22:45;16.06;42.58
83808;SHT31;73824;40.292;17.998;2024-02-21T15:25:11;15.91;43.43
83808;SHT31;73824;40.292;17.998;2024-02-21T15:27:41;15.87;42.23
83808;SHT31;73824;40.292;17.998;2024-02-21T15:30:08;15.90;43.20